sensor_id;sensor_type;location;lat;lon;timestamp;temperature;humidity
5017;DHT22;2527;50.892;16.706;2023-07-29T00:01:23;19.60;99.90
5017;DHT22;2527;50.892;16.706;2023-07-29T00:03:49;19.60;99.90
5017;DHT22;2527;50.892;16.706;2023-07-29T00:06:15;19.50;99.90
5017;DHT22;2527;50.892;16.706;2023-07-29T00:08:41;19.50;99.90
5017;DHT22;2527;50.892;16.706;2023-07-29T00:11:06;19.50;99.90
5017;DHT22;2527;50.892;16.706;2023-07-29T00:13:32;19.50;99.90
5017;DHT22;2527;50.892;16.706;2023-07-29T00:15:58;19.40;99.90
5017;DHT22;2527;50.892;16.706;2023-07-29T00:18:24;19.50;99.90
5017;DHT22;2527;50.892;16.706;2023-07-29T00:20:50;19.50;99.90
5017;DHT22;2527;50.892;16.706;2023-07-29T00:23:16;19.40;99.90
5017;DHT22;2527;50.892;16.706;2023-07-29T00:25:45;19.40;99.90
5017;DHT22;2527;50.892;16.706;2023-07-29T00:28:11;19.40;99.90
5017;DHT22;2527;50.892;16.706;2023-07-29T00:30:38;19.40;99.90
5017;DHT22;2527;50.892;16.706;2023-07-29T00:33:04;19.30;99.90
5017;DHT22;2527;50.892;16.706;2023-07-29T00:35:29;19.30;99.90
5017;DHT22;2527;50.892;16.706;2023-07-29T00:37:55;19.30;99.90
5017;DHT22;2527;50.892;16.706;2023-07-29T00:40:21;19.30;99.90
5017;DHT22;2527;50.892;16.706;2023-07-29T00:42:47;19.30;99.90
5017;DHT22;2527;50.892;16.706;2023-07-29T00:45:13;19.30;99.90
5017;DHT22;2527;50.892;16.706;2023-07-29T00:47:39;19.30;99.90
5017;DHT22;2527;50.892;16.706;2023-07-29T00:50:07;19.40;99.90
5017;DHT22;2527;50.892;16.706;2023-07-29T00:52:34;19.40;99.90
5017;DHT22;2527;50.892;16.706;2023-07-29T00:55:00;19.40;99.90
5017;DHT22;2527;50.892;16.706;2023-07-29T00:57:25;19.40;99.90
5017;DHT22;2527;50.892;16.706;2023-07-29T00:59:52;19.40;99.90
5017;DHT22;2527;50.892;16.706;2023-07-29T01:02:19;19.50;99.90
5017;DHT22;2527;50.892;16.706;2023-07-29T01:04:45;19.50;99.90
5017;DHT22;2527;50.892;16.706;2023-07-29T01:07:19;19.50;99.90
5017;DHT22;2527;50.892;16.706;2023-07-29T01:12:35;19.50;99.90
5017;DHT22;2527;50.892;16.706;2023-07-29T01:15:16;19.60;99.90
5017;DHT22;2527;50.892;16.706;2023-07-29T01:17:47;19.60;99.90
5017;DHT22;2527;50.892;16.706;2023-07-29T01:20:16;19.60;99.90
5017;DHT22;2527;50.892;16.706;2023-07-29T01:22:45;19.60;99.90
5017;DHT22;2527;50.892;16.706;2023-07-29T01:25:12;19.60;99.90
5017;DHT22;2527;50.892;16.706;2023-07-29T01:27:38;19.60;99.90
5017;DHT22;2527;50.892;16.706;2023-07-29T01:30:04;19.60;99.90
5017;DHT22;2527;50.892;16.706;2023-07-29T01:32:52;19.60;99.90
5017;DHT22;2527;50.892;16.706;2023-07-29T01:37:55;19.60;99.90
5017;DHT22;2527;50.892;16.706;2023-07-29T01:40:23;19.60;99.90
5017;DHT22;2527;50.892;16.706;2023-07-29T01:42:52;19.60;99.90
5017;DHT22;2527;50.892;16.706;2023-07-29T01:45:18;19.60;99.90
5017;DHT22;2527;50.892;16.706;2023-07-29T01:47:44;19.60;99.90
5017;DHT22;2527;50.892;16.706;2023-07-29T01:50:10;19.60;99.90
5017;DHT22;2527;50.892;16.706;2023-07-29T01:52:36;19.70;99.90
5017;DHT22;2527;50.892;16.706;2023-07-29T01:55:02;19.70;99.90
5017;DHT22;2527;50.892;16.706;2023-07-29T01:57:30;19.70;99.90
5017;DHT22;2527;50.892;16.706;2023-07-29T01:59:56;19.70;99.90
5017;DHT22;2527;50.892;16.706;2023-07-29T02:02:21;19.70;99.90
5017;DHT22;2527;50.892;16.706;2023-07-29T02:04:47;19.70;99.90
5017;DHT22;2527;50.892;16.706;2023-07-29T02:07:17;19.70;99.90
5017;DHT22;2527;50.892;16.706;2023-07-29T02:09:43;19.70;99.90
5017;DHT22;2527;50.892;16.706;2023-07-29T02:12:09;19.70;99.90
5017;DHT22;2527;50.892;16.706;2023-07-29T02:14:34;19.70;99.90
5017;DHT22;2527;50.892;16.706;2023-07-29T02:17:00;19.80;99.90
5017;DHT22;2527;50.892;16.706;2023-07-29T02:19:25;19.80;99.90
5017;DHT22;2527;50.892;16.706;2023-07-29T02:21:51;19.80;99.90
5017;DHT22;2527;50.892;16.706;2023-07-29T02:24:17;19.80;99.90
5017;DHT22;2527;50.892;16.706;2023-07-29T02:26:42;19.80;99.90
5017;DHT22;2527;50.892;16.706;2023-07-29T02:29:08;19.80;99.90
5017;DHT22;2527;50.892;16.706;2023-07-29T02:31:34;19.90;99.90
5017;DHT22;2527;50.892;16.706;2023-07-29T02:34:02;19.90;99.90
5017;DHT22;2527;50.892;16.706;2023-07-29T02:36:27;19.90;99.90
5017;DHT22;2527;50.892;16.706;2023-07-29T02:38:53;19.90;99.90
5017;DHT22;2527;50.892;16.706;2023-07-29T02:41:19;19.90;99.90
5017;DHT22;2527;50.892;16.706;2023-07-29T02:43:49;19.90;99.90
5017;DHT22;2527;50.892;16.706;2023-07-29T02:46:14;19.90;99.90
5017;DHT22;2527;50.892;16.706;2023-07-29T02:48:41;19.90;99.90
5017;DHT22;2527;50.892;16.706;2023-07-29T02:51:07;19.90;99.90
5017;DHT22;2527;50.892;16.706;2023-07-29T02:53:34;19.90;99.90
5017;DHT22;2527;50.892;16.706;2023-07-29T02:56:02;19.80;99.90
5017;DHT22;2527;50.892;16.706;2023-07-29T02:58:28;19.80;99.90
5017;DHT22;2527;50.892;16.706;2023-07-29T03:00:53;19.80;99.90
5017;DHT22;2527;50.892;16.706;2023-07-29T03:03:25;19.80;99.90
5017;DHT22;2527;50.892;16.706;2023-07-29T03:05:56;19.80;99.90
5017;DHT22;2527;50.892;16.706;2023-07-29T03:08:23;19.80;99.90
5017;DHT22;2527;50.892;16.706;2023-07-29T03:10:48;19.80;99.90
5017;DHT22;2527;50.892;16.706;2023-07-29T03:13:14;19.80;99.90
5017;DHT22;2527;50.892;16.706;2023-07-29T03:15:39;19.80;99.90
5017;DHT22;2527;50.892;16.706;2023-07-29T03:18:06;19.80;99.90
5017;DHT22;2527;50.892;16.706;2023-07-29T03:20:32;19.80;99.90
5017;DHT22;2527;50.892;16.706;2023-07-29T03:23:00;19.80;99.90
5017;DHT22;2527;50.892;16.706;2023-07-29T03:25:26;19.80;99.90
5017;DHT22;2527;50.892;16.706;2023-07-29T03:27:51;19.80;99.90
5017;DHT22;2527;50.892;16.706;2023-07-29T03:30:20;19.80;99.90
5017;DHT22;2527;50.892;16.706;2023-07-29T03:32:47;19.80;99.90
5017;DHT22;2527;50.892;16.706;2023-07-29T03:35:12;19.80;99.90
5017;DHT22;2527;50.892;16.706;2023-07-29T03:37:38;19.80;99.90
5017;DHT22;2527;50.892;16.706;2023-07-29T03:40:05;19.80;99.90
5017;DHT22;2527;50.892;16.706;2023-07-29T03:42:31;19.80;99.90
5017;DHT22;2527;50.892;16.706;2023-07-29T03:44:58;19.80;99.90
5017;DHT22;2527;50.892;16.706;2023-07-29T03:47:23;19.80;99.90
5017;DHT22;2527;50.892;16.706;2023-07-29T03:49:49;19.70;99.90
5017;DHT22;2527;50.892;16.706;2023-07-29T03:52:15;19.70;99.90
5017;DHT22;2527;50.892;16.706;2023-07-29T03:54:41;19.70;99.90
5017;DHT22;2527;50.892;16.706;2023-07-29T03:57:07;19.70;99.90
5017;DHT22;2527;50.892;16.706;2023-07-29T03:59:32;19.70;99.90
5017;DHT22;2527;50.892;16.706;2023-07-29T04:01:58;19.70;99.90
5017;DHT22;2527;50.892;16.706;2023-07-29T04:04:24;19.70;99.90
5017;DHT22;2527;50.892;16.706;2023-07-29T04:06:50;19.70;99.90
5017;DHT22;2527;50.892;16.706;2023-07-29T04:09:16;19.70;99.90
5017;DHT22;2527;50.892;16.706;2023-07-29T04:11:42;19.70;99.90
5017;DHT22;2527;50.892;16.706;2023-07-29T04:14:08;19.70;99.90
5017;DHT22;2527;50.892;16.706;2023-07-29T04:16:34;19.80;99.90
5017;DHT22;2527;50.892;16.706;2023-07-29T04:18:59;19.80;99.90
5017;DHT22;2527;50.892;16.706;2023-07-29T04:21:25;19.90;99.90
5017;DHT22;2527;50.892;16.706;2023-07-29T04:23:51;20.20;99.90
5017;DHT22;2527;50.892;16.706;2023-07-29T04:26:16;20.40;99.90
5017;DHT22;2527;50.892;16.706;2023-07-29T04:28:42;20.80;99.90
5017;DHT22;2527;50.892;16.706;2023-07-29T04:31:08;20.90;99.90
5017;DHT22;2527;50.892;16.706;2023-07-29T04:33:34;20.90;99.90
5017;DHT22;2527;50.892;16.706;2023-07-29T04:36:00;20.80;99.90
5017;DHT22;2527;50.892;16.706;2023-07-29T04:38:30;20.90;99.90
5017;DHT22;2527;50.892;16.706;2023-07-29T04:40:58;21.00;99.90
5017;DHT22;2527;50.892;16.706;2023-07-29T04:43:27;21.10;99.90
5017;DHT22;2527;50.892;16.706;2023-07-29T04:45:53;21.50;99.90
5017;DHT22;2527;50.892;16.706;2023-07-29T04:48:19;21.80;99.90
5017;DHT22;2527;50.892;16.706;2023-07-29T04:50:44;21.80;99.90
5017;DHT22;2527;50.892;16.706;2023-07-29T04:53:10;21.80;99.90
5017;DHT22;2527;50.892;16.706;2023-07-29T04:55:36;21.80;99.90
5017;DHT22;2527;50.892;16.706;2023-07-29T04:58:03;21.70;99.90
5017;DHT22;2527;50.892;16.706;2023-07-29T05:00:28;21.90;99.90
5017;DHT22;2527;50.892;16.706;2023-07-29T05:02:54;22.90;99.90
5017;DHT22;2527;50.892;16.706;2023-07-29T05:05:20;24.40;99.90
5017;DHT22;2527;50.892;16.706;2023-07-29T05:07:45;26.00;99.90
5017;DHT22;2527;50.892;16.706;2023-07-29T05:10:11;27.50;99.90
5017;DHT22;2527;50.892;16.706;2023-07-29T05:12:37;29.00;99.90
5017;DHT22;2527;50.892;16.706;2023-07-29T05:15:03;30.30;99.90
5017;DHT22;2527;50.892;16.706;2023-07-29T05:17:29;31.50;99.90
5017;DHT22;2527;50.892;16.706;2023-07-29T05:19:55;32.60;99.90
5017;DHT22;2527;50.892;16.706;2023-07-29T05:22:20;33.60;99.90
5017;DHT22;2527;50.892;16.706;2023-07-29T05:24:46;34.70;99.90
5017;DHT22;2527;50.892;16.706;2023-07-29T05:27:12;35.70;99.90
5017;DHT22;2527;50.892;16.706;2023-07-29T05:29:37;36.50;99.90
5017;DHT22;2527;50.892;16.706;2023-07-29T05:32:03;37.20;99.90
5017;DHT22;2527;50.892;16.706;2023-07-29T05:34:29;37.60;99.90
5017;DHT22;2527;50.892;16.706;2023-07-29T05:36:54;38.20;99.90
5017;DHT22;2527;50.892;16.706;2023-07-29T05:39:20;38.50;99.90
5017;DHT22;2527;50.892;16.706;2023-07-29T05:41:46;39.00;99.90
5017;DHT22;2527;50.892;16.706;2023-07-29T05:44:12;39.30;99.90
5017;DHT22;2527;50.892;16.706;2023-07-29T05:46:38;39.80;99.90
5017;DHT22;2527;50.892;16.706;2023-07-29T05:49:03;40.10;99.90
5017;DHT22;2527;50.892;16.706;2023-07-29T05:51:29;40.50;99.90
5017;DHT22;2527;50.892;16.706;2023-07-29T05:53:54;40.90;99.90
5017;DHT22;2527;50.892;16.706;2023-07-29T05:56:20;41.30;99.90
5017;DHT22;2527;50.892;16.706;2023-07-29T05:58:46;41.70;99.90
5017;DHT22;2527;50.892;16.706;2023-07-29T06:01:11;42.00;99.90
5017;DHT22;2527;50.892;16.706;2023-07-29T06:03:37;42.30;99.90
5017;DHT22;2527;50.892;16.706;2023-07-29T06:06:03;42.60;99.90
5017;DHT22;2527;50.892;16.706;2023-07-29T06:08:28;42.70;99.90
5017;DHT22;2527;50.892;16.706;2023-07-29T06:10:54;42.80;99.90
5017;DHT22;2527;50.892;16.706;2023-07-29T06:13:20;42.80;99.90
5017;DHT22;2527;50.892;16.706;2023-07-29T06:15:46;42.90;99.90
5017;DHT22;2527;50.892;16.706;2023-07-29T06:18:11;43.10;99.90
5017;DHT22;2527;50.892;16.706;2023-07-29T06:20:37;43.10;99.90
5017;DHT22;2527;50.892;16.706;2023-07-29T06:23:04;43.00;99.90
5017;DHT22;2527;50.892;16.706;2023-07-29T06:25:30;42.80;99.90
5017;DHT22;2527;50.892;16.706;2023-07-29T06:27:55;42.00;99.90
5017;DHT22;2527;50.892;16.706;2023-07-29T06:30:21;40.70;99.90
5017;DHT22;2527;50.892;16.706;2023-07-29T06:32:48;39.30;99.90
5017;DHT22;2527;50.892;16.706;2023-07-29T06:35:29;38.10;99.90
5017;DHT22;2527;50.892;16.706;2023-07-29T06:37:54;36.90;99.90
5017;DHT22;2527;50.892;16.706;2023-07-29T06:40:21;35.80;99.90
5017;DHT22;2527;50.892;16.706;2023-07-29T06:42:46;35.00;99.90
5017;DHT22;2527;50.892;16.706;2023-07-29T06:45:12;34.20;99.90
5017;DHT22;2527;50.892;16.706;2023-07-29T06:47:38;33.50;99.90
5017;DHT22;2527;50.892;16.706;2023-07-29T06:50:03;32.90;99.90
5017;DHT22;2527;50.892;16.706;2023-07-29T06:52:29;32.30;99.90
5017;DHT22;2527;50.892;16.706;2023-07-29T06:54:56;31.80;99.90
5017;DHT22;2527;50.892;16.706;2023-07-29T06:57:22;31.40;99.90
5017;DHT22;2527;50.892;16.706;2023-07-29T06:59:48;31.00;99.90
5017;DHT22;2527;50.892;16.706;2023-07-29T07:02:13;30.80;99.90
5017;DHT22;2527;50.892;16.706;2023-07-29T07:04:39;30.70;99.90
5017;DHT22;2527;50.892;16.706;2023-07-29T07:07:05;30.60;99.90
5017;DHT22;2527;50.892;16.706;2023-07-29T07:09:31;29.90;99.90
5017;DHT22;2527;50.892;16.706;2023-07-29T07:11:56;30.50;99.90
5017;DHT22;2527;50.892;16.706;2023-07-29T07:14:22;30.40;99.90
5017;DHT22;2527;50.892;16.706;2023-07-29T07:16:48;30.30;99.90
5017;DHT22;2527;50.892;16.706;2023-07-29T07:19:14;30.20;99.90
5017;DHT22;2527;50.892;16.706;2023-07-29T07:21:40;30.10;99.90
5017;DHT22;2527;50.892;16.706;2023-07-29T07:24:06;30.00;99.90
5017;DHT22;2527;50.892;16.706;2023-07-29T07:26:32;30.00;99.90
5017;DHT22;2527;50.892;16.706;2023-07-29T07:28:57;30.00;99.90
5017;DHT22;2527;50.892;16.706;2023-07-29T07:31:23;30.00;99.90
5017;DHT22;2527;50.892;16.706;2023-07-29T07:33:49;29.90;99.90
5017;DHT22;2527;50.892;16.706;2023-07-29T07:36:14;29.80;99.90
5017;DHT22;2527;50.892;16.706;2023-07-29T07:38:41;29.60;99.90
5017;DHT22;2527;50.892;16.706;2023-07-29T07:41:06;29.50;99.90
5017;DHT22;2527;50.892;16.706;2023-07-29T07:43:32;29.40;99.90
5017;DHT22;2527;50.892;16.706;2023-07-29T07:45:59;29.20;99.90
5017;DHT22;2527;50.892;16.706;2023-07-29T07:48:25;29.00;99.90
5017;DHT22;2527;50.892;16.706;2023-07-29T07:50:51;29.00;99.90
5017;DHT22;2527;50.892;16.706;2023-07-29T07:53:17;28.90;99.90
5017;DHT22;2527;50.892;16.706;2023-07-29T07:55:42;28.70;99.90
5017;DHT22;2527;50.892;16.706;2023-07-29T07:58:08;28.60;99.90
5017;DHT22;2527;50.892;16.706;2023-07-29T08:00:33;28.40;99.90
5017;DHT22;2527;50.892;16.706;2023-07-29T08:02:59;28.20;99.90
5017;DHT22;2527;50.892;16.706;2023-07-29T08:05:25;28.20;99.90
5017;DHT22;2527;50.892;16.706;2023-07-29T08:07:50;28.20;99.90
5017;DHT22;2527;50.892;16.706;2023-07-29T08:10:16;28.30;99.90
5017;DHT22;2527;50.892;16.706;2023-07-29T08:12:42;28.30;99.90
5017;DHT22;2527;50.892;16.706;2023-07-29T08:15:08;28.40;99.90
5017;DHT22;2527;50.892;16.706;2023-07-29T08:17:33;28.40;99.90
5017;DHT22;2527;50.892;16.706;2023-07-29T08:19:59;28.50;99.90
5017;DHT22;2527;50.892;16.706;2023-07-29T08:22:25;28.70;99.90
5017;DHT22;2527;50.892;16.706;2023-07-29T08:24:50;28.70;99.90
5017;DHT22;2527;50.892;16.706;2023-07-29T08:27:16;28.80;99.90
5017;DHT22;2527;50.892;16.706;2023-07-29T08:29:42;28.80;99.90
5017;DHT22;2527;50.892;16.706;2023-07-29T08:32:08;28.80;99.90
5017;DHT22;2527;50.892;16.706;2023-07-29T08:34:33;28.70;99.90
5017;DHT22;2527;50.892;16.706;2023-07-29T08:36:59;28.50;99.90
5017;DHT22;2527;50.892;16.706;2023-07-29T08:39:25;28.30;99.90
5017;DHT22;2527;50.892;16.706;2023-07-29T08:44:26;28.10;99.90
5017;DHT22;2527;50.892;16.706;2023-07-29T08:46:52;28.00;99.90
5017;DHT22;2527;50.892;16.706;2023-07-29T08:49:19;27.90;99.90
5017;DHT22;2527;50.892;16.706;2023-07-29T08:54:10;27.90;99.90
5017;DHT22;2527;50.892;16.706;2023-07-29T08:56:36;27.90;99.90
5017;DHT22;2527;50.892;16.706;2023-07-29T08:59:01;28.00;99.90
5017;DHT22;2527;50.892;16.706;2023-07-29T09:01:28;28.00;99.90
5017;DHT22;2527;50.892;16.706;2023-07-29T09:03:56;28.00;99.90
5017;DHT22;2527;50.892;16.706;2023-07-29T09:06:23;28.10;99.90
5017;DHT22;2527;50.892;16.706;2023-07-29T09:08:51;28.10;99.90
5017;DHT22;2527;50.892;16.706;2023-07-29T09:11:16;28.10;99.90
5017;DHT22;2527;50.892;16.706;2023-07-29T09:16:07;28.20;99.90
5017;DHT22;2527;50.892;16.706;2023-07-29T09:18:34;28.30;99.90
5017;DHT22;2527;50.892;16.706;2023-07-29T09:21:00;28.30;99.90
5017;DHT22;2527;50.892;16.706;2023-07-29T09:23:37;28.40;99.90
5017;DHT22;2527;50.892;16.706;2023-07-29T09:26:03;28.50;99.90
5017;DHT22;2527;50.892;16.706;2023-07-29T09:28:32;28.40;99.90
5017;DHT22;2527;50.892;16.706;2023-07-29T09:30:55;28.40;99.90
5017;DHT22;2527;50.892;16.706;2023-07-29T09:33:21;28.30;99.90
5017;DHT22;2527;50.892;16.706;2023-07-29T09:38:16;28.20;99.90
5017;DHT22;2527;50.892;16.706;2023-07-29T09:40:41;28.20;99.90
5017;DHT22;2527;50.892;16.706;2023-07-29T09:43:10;28.30;99.90
5017;DHT22;2527;50.892;16.706;2023-07-29T09:45:36;28.30;99.90
5017;DHT22;2527;50.892;16.706;2023-07-29T09:48:03;28.30;99.90
5017;DHT22;2527;50.892;16.706;2023-07-29T09:50:30;28.30;99.90
5017;DHT22;2527;50.892;16.706;2023-07-29T09:52:56;28.20;99.90
5017;DHT22;2527;50.892;16.706;2023-07-29T09:55:23;28.10;99.90
5017;DHT22;2527;50.892;16.706;2023-07-29T10:00:21;28.10;99.90
5017;DHT22;2527;50.892;16.706;2023-07-29T10:02:46;28.10;99.90
5017;DHT22;2527;50.892;16.706;2023-07-29T10:05:12;28.20;99.90
5017;DHT22;2527;50.892;16.706;2023-07-29T10:07:39;28.20;99.90
5017;DHT22;2527;50.892;16.706;2023-07-29T10:10:05;28.20;99.90
5017;DHT22;2527;50.892;16.706;2023-07-29T10:15:08;28.30;99.90
5017;DHT22;2527;50.892;16.706;2023-07-29T10:19:59;28.10;99.90
5017;DHT22;2527;50.892;16.706;2023-07-29T10:22:27;28.10;99.90
5017;DHT22;2527;50.892;16.706;2023-07-29T10:24:54;28.00;99.90
5017;DHT22;2527;50.892;16.706;2023-07-29T10:27:21;28.00;99.90
5017;DHT22;2527;50.892;16.706;2023-07-29T10:29:49;28.00;99.90
5017;DHT22;2527;50.892;16.706;2023-07-29T10:32:15;28.00;99.90
5017;DHT22;2527;50.892;16.706;2023-07-29T10:34:41;28.10;99.90
5017;DHT22;2527;50.892;16.706;2023-07-29T10:37:07;28.20;99.90
5017;DHT22;2527;50.892;16.706;2023-07-29T10:42:03;28.20;99.90
5017;DHT22;2527;50.892;16.706;2023-07-29T10:49:43;28.20;99.90
5017;DHT22;2527;50.892;16.706;2023-07-29T10:52:08;28.20;99.90
5017;DHT22;2527;50.892;16.706;2023-07-29T10:54:47;28.20;99.90
5017;DHT22;2527;50.892;16.706;2023-07-29T10:57:14;28.20;99.90
5017;DHT22;2527;50.892;16.706;2023-07-29T10:59:41;28.20;99.90
5017;DHT22;2527;50.892;16.706;2023-07-29T11:02:17;28.20;99.90
5017;DHT22;2527;50.892;16.706;2023-07-29T11:04:46;28.20;99.90
5017;DHT22;2527;50.892;16.706;2023-07-29T11:09:41;28.10;99.90
5017;DHT22;2527;50.892;16.706;2023-07-29T11:14:51;28.20;99.90
5017;DHT22;2527;50.892;16.706;2023-07-29T11:17:20;28.20;99.90
5017;DHT22;2527;50.892;16.706;2023-07-29T11:19:46;28.10;99.90
5017;DHT22;2527;50.892;16.706;2023-07-29T11:22:12;28.10;99.90
5017;DHT22;2527;50.892;16.706;2023-07-29T11:24:37;28.00;99.90
5017;DHT22;2527;50.892;16.706;2023-07-29T11:27:03;28.00;99.90
5017;DHT22;2527;50.892;16.706;2023-07-29T11:29:29;27.90;99.90
5017;DHT22;2527;50.892;16.706;2023-07-29T11:31:55;27.80;99.90
5017;DHT22;2527;50.892;16.706;2023-07-29T11:34:30;27.70;99.90
5017;DHT22;2527;50.892;16.706;2023-07-29T11:36:56;27.70;99.90
5017;DHT22;2527;50.892;16.706;2023-07-29T11:39:21;27.60;99.90
5017;DHT22;2527;50.892;16.706;2023-07-29T11:41:47;27.60;99.90
5017;DHT22;2527;50.892;16.706;2023-07-29T11:44:19;27.50;99.90
5017;DHT22;2527;50.892;16.706;2023-07-29T11:46:44;27.60;99.90
5017;DHT22;2527;50.892;16.706;2023-07-29T11:49:10;27.60;99.90
5017;DHT22;2527;50.892;16.706;2023-07-29T11:51:36;27.70;99.90
5017;DHT22;2527;50.892;16.706;2023-07-29T11:54:02;27.70;99.90
5017;DHT22;2527;50.892;16.706;2023-07-29T11:56:28;27.80;99.90
5017;DHT22;2527;50.892;16.706;2023-07-29T11:59:07;27.80;99.90
5017;DHT22;2527;50.892;16.706;2023-07-29T12:01:33;27.80;99.90
5017;DHT22;2527;50.892;16.706;2023-07-29T12:03:59;27.80;99.90
5017;DHT22;2527;50.892;16.706;2023-07-29T12:06:24;27.80;99.90
5017;DHT22;2527;50.892;16.706;2023-07-29T12:08:51;27.80;99.90
5017;DHT22;2527;50.892;16.706;2023-07-29T12:11:16;27.80;99.90
5017;DHT22;2527;50.892;16.706;2023-07-29T12:13:42;27.70;99.90
5017;DHT22;2527;50.892;16.706;2023-07-29T12:16:08;27.70;99.90
5017;DHT22;2527;50.892;16.706;2023-07-29T12:18:34;27.70;99.90
5017;DHT22;2527;50.892;16.706;2023-07-29T12:20:59;27.70;99.90
5017;DHT22;2527;50.892;16.706;2023-07-29T12:23:26;27.70;99.90
5017;DHT22;2527;50.892;16.706;2023-07-29T12:25:56;27.70;99.90
5017;DHT22;2527;50.892;16.706;2023-07-29T12:28:22;27.70;99.90
5017;DHT22;2527;50.892;16.706;2023-07-29T12:30:52;27.60;99.90
5017;DHT22;2527;50.892;16.706;2023-07-29T12:33:35;27.60;99.90
5017;DHT22;2527;50.892;16.706;2023-07-29T12:36:00;27.50;99.90
5017;DHT22;2527;50.892;16.706;2023-07-29T12:38:26;27.40;99.90
5017;DHT22;2527;50.892;16.706;2023-07-29T12:40:52;27.40;99.90
5017;DHT22;2527;50.892;16.706;2023-07-29T12:43:18;27.40;99.90
5017;DHT22;2527;50.892;16.706;2023-07-29T12:45:43;27.40;99.90
5017;DHT22;2527;50.892;16.706;2023-07-29T12:48:09;27.40;99.90
5017;DHT22;2527;50.892;16.706;2023-07-29T12:50:35;27.40;99.90
5017;DHT22;2527;50.892;16.706;2023-07-29T12:53:01;27.50;99.90
5017;DHT22;2527;50.892;16.706;2023-07-29T12:55:26;27.50;99.90
5017;DHT22;2527;50.892;16.706;2023-07-29T12:57:52;27.50;99.90
5017;DHT22;2527;50.892;16.706;2023-07-29T13:00:18;27.60;99.90
5017;DHT22;2527;50.892;16.706;2023-07-29T13:02:43;27.60;99.90
5017;DHT22;2527;50.892;16.706;2023-07-29T13:05:09;27.60;99.90
5017;DHT22;2527;50.892;16.706;2023-07-29T13:07:36;27.60;99.90
5017;DHT22;2527;50.892;16.706;2023-07-29T13:10:02;27.70;99.90
5017;DHT22;2527;50.892;16.706;2023-07-29T13:12:28;27.60;99.90
5017;DHT22;2527;50.892;16.706;2023-07-29T13:14:54;27.60;99.90
5017;DHT22;2527;50.892;16.706;2023-07-29T13:17:19;27.50;99.90
5017;DHT22;2527;50.892;16.706;2023-07-29T13:19:46;27.50;99.90
5017;DHT22;2527;50.892;16.706;2023-07-29T13:22:11;27.50;99.90
5017;DHT22;2527;50.892;16.706;2023-07-29T13:24:37;27.50;99.90
5017;DHT22;2527;50.892;16.706;2023-07-29T13:27:03;27.50;99.90
5017;DHT22;2527;50.892;16.706;2023-07-29T13:29:30;27.60;99.90
5017;DHT22;2527;50.892;16.706;2023-07-29T13:31:55;27.60;99.90
5017;DHT22;2527;50.892;16.706;2023-07-29T13:34:21;27.60;99.90
5017;DHT22;2527;50.892;16.706;2023-07-29T13:36:47;27.60;99.90
5017;DHT22;2527;50.892;16.706;2023-07-29T13:39:13;27.60;99.90
5017;DHT22;2527;50.892;16.706;2023-07-29T13:41:38;27.60;99.90
5017;DHT22;2527;50.892;16.706;2023-07-29T13:44:04;27.60;99.90
5017;DHT22;2527;50.892;16.706;2023-07-29T13:46:29;27.60;99.90
5017;DHT22;2527;50.892;16.706;2023-07-29T13:48:55;27.60;99.90
5017;DHT22;2527;50.892;16.706;2023-07-29T13:51:20;27.50;99.90
5017;DHT22;2527;50.892;16.706;2023-07-29T13:53:46;27.50;99.90
5017;DHT22;2527;50.892;16.706;2023-07-29T13:56:12;27.50;99.90
5017;DHT22;2527;50.892;16.706;2023-07-29T13:58:37;27.40;99.90
5017;DHT22;2527;50.892;16.706;2023-07-29T14:01:03;27.40;99.90
5017;DHT22;2527;50.892;16.706;2023-07-29T14:03:28;27.40;99.90
5017;DHT22;2527;50.892;16.706;2023-07-29T14:05:54;27.30;99.90
5017;DHT22;2527;50.892;16.706;2023-07-29T14:08:19;27.20;99.90
5017;DHT22;2527;50.892;16.706;2023-07-29T14:10:45;27.20;99.90
5017;DHT22;2527;50.892;16.706;2023-07-29T14:13:11;27.10;99.90
5017;DHT22;2527;50.892;16.706;2023-07-29T14:15:36;27.00;99.90
5017;DHT22;2527;50.892;16.706;2023-07-29T14:18:02;27.00;99.90
5017;DHT22;2527;50.892;16.706;2023-07-29T14:20:28;26.90;99.90
5017;DHT22;2527;50.892;16.706;2023-07-29T14:22:54;26.90;99.90
5017;DHT22;2527;50.892;16.706;2023-07-29T14:25:19;26.80;99.90
5017;DHT22;2527;50.892;16.706;2023-07-29T14:27:45;26.70;99.90
5017;DHT22;2527;50.892;16.706;2023-07-29T14:30:10;26.70;99.90
5017;DHT22;2527;50.892;16.706;2023-07-29T14:32:36;26.60;99.90
5017;DHT22;2527;50.892;16.706;2023-07-29T14:35:03;26.60;99.90
5017;DHT22;2527;50.892;16.706;2023-07-29T14:37:31;26.50;99.90
5017;DHT22;2527;50.892;16.706;2023-07-29T14:39:58;26.40;99.90
5017;DHT22;2527;50.892;16.706;2023-07-29T14:42:24;26.40;99.90
5017;DHT22;2527;50.892;16.706;2023-07-29T14:44:49;26.30;99.90
5017;DHT22;2527;50.892;16.706;2023-07-29T14:47:15;26.30;99.90
5017;DHT22;2527;50.892;16.706;2023-07-29T14:49:41;26.30;99.90
5017;DHT22;2527;50.892;16.706;2023-07-29T14:52:07;26.20;99.90
5017;DHT22;2527;50.892;16.706;2023-07-29T14:54:33;26.20;99.90
5017;DHT22;2527;50.892;16.706;2023-07-29T14:56:58;26.20;99.90
5017;DHT22;2527;50.892;16.706;2023-07-29T14:59:24;26.20;99.90
5017;DHT22;2527;50.892;16.706;2023-07-29T15:01:50;26.20;99.90
5017;DHT22;2527;50.892;16.706;2023-07-29T15:04:15;26.20;99.90
5017;DHT22;2527;50.892;16.706;2023-07-29T15:06:41;26.10;99.90
5017;DHT22;2527;50.892;16.706;2023-07-29T15:09:07;26.10;99.90
5017;DHT22;2527;50.892;16.706;2023-07-29T15:11:33;26.20;99.90
5017;DHT22;2527;50.892;16.706;2023-07-29T15:13:59;26.20;99.90
5017;DHT22;2527;50.892;16.706;2023-07-29T15:16:25;26.20;99.90
5017;DHT22;2527;50.892;16.706;2023-07-29T15:18:51;26.20;99.90
5017;DHT22;2527;50.892;16.706;2023-07-29T15:21:16;26.10;99.90
5017;DHT22;2527;50.892;16.706;2023-07-29T15:23:43;26.10;99.90
5017;DHT22;2527;50.892;16.706;2023-07-29T15:26:09;26.10;99.90
5017;DHT22;2527;50.892;16.706;2023-07-29T15:28:35;26.00;99.90
5017;DHT22;2527;50.892;16.706;2023-07-29T15:31:01;26.00;99.90
5017;DHT22;2527;50.892;16.706;2023-07-29T15:33:27;25.90;99.90
5017;DHT22;2527;50.892;16.706;2023-07-29T15:35:52;25.80;99.90
5017;DHT22;2527;50.892;16.706;2023-07-29T15:38:18;25.80;99.90
5017;DHT22;2527;50.892;16.706;2023-07-29T15:40:44;25.30;99.90
5017;DHT22;2527;50.892;16.706;2023-07-29T15:43:10;25.70;99.90
5017;DHT22;2527;50.892;16.706;2023-07-29T15:45:35;25.70;99.90
5017;DHT22;2527;50.892;16.706;2023-07-29T15:48:01;25.70;99.90
5017;DHT22;2527;50.892;16.706;2023-07-29T15:50:27;25.60;99.90
5017;DHT22;2527;50.892;16.706;2023-07-29T15:52:53;25.60;99.90
5017;DHT22;2527;50.892;16.706;2023-07-29T15:55:19;25.60;99.90
5017;DHT22;2527;50.892;16.706;2023-07-29T15:57:45;25.60;99.90
5017;DHT22;2527;50.892;16.706;2023-07-29T16:00:11;25.60;99.90
5017;DHT22;2527;50.892;16.706;2023-07-29T16:02:38;25.60;99.90
5017;DHT22;2527;50.892;16.706;2023-07-29T16:05:04;25.60;99.90
5017;DHT22;2527;50.892;16.706;2023-07-29T16:07:30;25.60;99.90
5017;DHT22;2527;50.892;16.706;2023-07-29T16:09:56;25.60;99.90
5017;DHT22;2527;50.892;16.706;2023-07-29T16:12:21;25.70;99.90
5017;DHT22;2527;50.892;16.706;2023-07-29T16:14:49;25.70;99.90